Time;durP1;ratioP1;P1;durP2;ratioP2;P2;SDS_P1;SDS_P2;PMS_P1;PMS_P2;Temp;Humidity;BMP_temperature;BMP_pressure;BME280_temperature;BME280_humidity;BME280_pressure;Samples;Min_cycle;Max_cycle;Signal;HPM_P1;HPM_P2
2023/09/05 03:56:52;;;;;;;4.05;3.03;;;;;;;15.72;91.35;101198.09;5201502;34;20008;-84
2023/09/05 03:59:55;;;;;;;3.25;2.85;;;;;;;15.74;92.12;101198.75;5189991;34;34755;-84
2023/09/05 04:02:58;;;;;;;6.47;2.72;;;;;;;15.76;91.55;101202.94;5190243;34;34723;-84
2023/09/05 04:06:01;;;;;;;3.83;2.80;;;;;;;15.76;91.05;101200.22;5189972;34;35121;-84
2023/09/05 04:09:04;;;;;;;3.53;2.87;;;;;;;15.72;91.65;101204.34;5190073;34;33938;-84
2023/09/05 04:12:07;;;;;;;3.40;2.95;;;;;;;15.70;91.72;101206.41;5179219;34;34669;-84
2023/09/05 04:15:10;;;;;;;4.43;2.62;;;;;;;15.73;91.78;101210.63;5202847;34;33666;-84
2023/09/05 04:18:13;;;;;;;3.78;2.53;;;;;;;15.72;91.84;101212.50;5202715;34;33435;-84
2023/09/05 04:21:15;;;;;;;3.80;3.00;;;;;;;15.78;91.52;101216.31;5190208;34;33407;-84
2023/09/05 04:24:18;;;;;;;6.70;2.83;;;;;;;15.74;91.99;101220.47;5178846;34;33914;-84
2023/09/05 04:27:21;;;;;;;4.35;2.85;;;;;;;15.71;92.50;101213.53;5178922;34;33563;-84
2023/09/05 04:30:25;;;;;;;3.08;2.67;;;;;;;15.70;92.64;101219.97;5190198;34;33877;-84
2023/09/05 04:33:31;;;;;;;4.47;3.05;;;;;;;15.68;91.87;101226.63;5178999;34;33573;-84
2023/09/05 04:36:36;;;;;;;3.80;2.80;;;;;;;15.72;91.43;101219.81;5190540;34;33675;-84
2023/09/05 04:39:39;;;;;;;3.42;2.60;;;;;;;15.78;91.09;101228.03;5190713;34;34451;-84
2023/09/05 04:42:42;;;;;;;3.37;2.30;;;;;;;15.87;90.46;101224.16;5190118;34;35005;-84
2023/09/05 04:45:54;;;;;;;3.53;2.70;;;;;;;16.00;89.19;101219.91;5180047;34;33502;-84
2023/09/05 04:48:57;;;;;;;4.12;2.72;;;;;;;16.00;89.28;101218.03;5206785;34;33597;-88
2023/09/05 04:51:59;;;;;;;7.25;2.85;;;;;;;15.99;89.57;101231.81;5182744;34;33521;-88
2023/09/05 04:55:03;;;;;;;3.37;2.75;;;;;;;16.07;88.56;101224.38;5192308;34;34373;-87
2023/09/05 04:58:06;;;;;;;4.12;2.97;;;;;;;16.11;88.24;101232.97;5207104;34;33772;-84
2023/09/05 05:01:09;;;;;;;6.93;3.28;;;;;;;16.25;87.54;101232.06;5190352;34;33867;-85
2023/09/05 05:04:11;;;;;;;3.80;3.00;;;;;;;16.34;87.14;101232.78;5179625;34;33945;-84
2023/09/05 05:07:15;;;;;;;3.37;2.53;;;;;;;16.47;85.60;101227.47;5178627;34;33563;-84
2023/09/05 05:10:17;;;;;;;3.62;2.87;;;;;;;16.63;85.15;101230.94;5189587;34;34433;-84
2023/09/05 05:13:21;;;;;;;3.25;2.55;;;;;;;16.73;84.21;101239.59;5188664;34;34658;-84
2023/09/05 05:16:23;;;;;;;4.87;2.67;;;;;;;16.87;83.53;101237.84;5202758;34;33979;-84
2023/09/05 05:19:26;;;;;;;5.40;2.97;;;;;;;16.99;82.64;101233.53;5192275;34;33439;-84
2023/09/05 05:22:29;;;;;;;4.22;2.62;;;;;;;17.09;81.82;101236.75;5204317;34;34147;-84
2023/09/05 05:25:32;;;;;;;4.15;2.78;;;;;;;17.27;80.84;101235.41;5189710;34;34241;-84
2023/09/05 05:28:35;;;;;;;3.75;2.65;;;;;;;17.32;79.94;101236.47;5191662;34;33910;-84
2023/09/05 05:31:39;;;;;;;3.92;2.67;;;;;;;17.46;80.05;101231.91;5186339;34;35073;-84
2023/09/05 05:34:42;;;;;;;5.05;2.80;;;;;;;17.56;79.32;101234.28;5209228;34;34095;-84
2023/09/05 05:37:45;;;;;;;7.43;2.87;;;;;;;17.72;78.06;101230.34;5206265;34;33688;-84
2023/09/05 05:40:48;;;;;;;4.78;3.00;;;;;;;17.72;77.55;101231.19;5215274;34;33883;-84
2023/09/05 05:43:51;;;;;;;6.03;2.87;;;;;;;17.92;77.55;101233.19;5215359;34;33998;-84
2023/09/05 05:46:56;;;;;;;5.10;3.10;;;;;;;18.00;76.43;101233.81;5194952;34;33741;-84
2023/09/05 05:49:59;;;;;;;6.30;3.45;;;;;;;18.05;76.70;101231.34;5207490;34;33823;-84
2023/09/05 05:53:02;;;;;;;3.78;3.08;;;;;;;18.20;76.57;101231.16;5205961;34;34666;-84
2023/09/05 05:56:08;;;;;;;9.30;3.42;;;;;;;18.27;74.79;101228.44;5218595;34;34707;-84
2023/09/05 05:59:10;;;;;;;6.68;3.10;;;;;;;18.42;75.11;101229.06;5204942;34;33825;-84
2023/09/05 06:02:14;;;;;;;3.83;3.03;;;;;;;18.48;73.83;101230.94;5193899;34;33773;-84
2023/09/05 06:05:17;;;;;;;3.25;2.72;;;;;;;18.60;73.28;101233.87;5195189;34;35106;-84
2023/09/05 06:08:19;;;;;;;3.20;2.58;;;;;;;18.73;72.44;101233.94;5193677;34;33938;-84
2023/09/05 06:11:22;;;;;;;4.32;2.75;;;;;;;18.89;72.16;101234.53;5171887;34;34526;-84
2023/09/05 06:14:25;;;;;;;4.05;3.05;;;;;;;18.91;70.69;101232.44;5171866;34;33882;-84
2023/09/05 06:17:28;;;;;;;4.55;2.90;;;;;;;19.07;70.78;101226.56;5173348;34;33463;-84
2023/09/05 06:20:34;;;;;;;3.20;2.90;;;;;;;19.20;69.87;101228.41;5205875;34;34511;-84
2023/09/05 06:23:37;;;;;;;4.97;2.95;;;;;;;19.42;70.07;101227.09;5211284;34;33499;-84
2023/09/05 06:26:41;;;;;;;3.97;3.03;;;;;;;19.47;69.56;101227.25;5180241;34;34411;-84
2023/09/05 06:29:44;;;;;;;5.18;2.80;;;;;;;19.63;67.73;101227.84;5191568;34;33820;-84
2023/09/05 06:32:47;;;;;;;3.28;2.67;;;;;;;19.72;66.46;101228.47;5200604;34;35664;-84
2023/09/05 06:35:50;;;;;;;3.15;2.67;;;;;;;19.85;66.05;101239.31;5175388;34;35102;-84
2023/09/05 06:38:53;;;;;;;2.97;2.47;;;;;;;19.90;66.24;101234.88;5174561;34;35010;-84
2023/09/05 06:41:56;;;;;;;3.62;2.30;;;;;;;20.14;64.42;101233.25;5190724;34;34297;-84
2023/09/05 06:45:03;;;;;;;4.12;2.70;;;;;;;20.21;64.82;101241.44;5193405;34;34757;-83
2023/09/05 06:48:06;;;;;;;4.72;2.45;;;;;;;20.14;64.10;101233.25;5193845;34;34763;-84
2023/09/05 06:51:09;;;;;;;3.92;2.62;;;;;;;20.28;64.55;101238.66;5194258;34;34012;-84
2023/09/05 06:54:13;;;;;;;3.10;2.37;;;;;;;20.44;63.39;101235.34;5199371;34;33912;-83
2023/09/05 06:57:16;;;;;;;4.97;3.33;;;;;;;20.44;61.90;101235.34;5223033;34;33431;-83
2023/09/05 07:00:23;;;;;;;3.70;2.45;;;;;;;20.65;63.19;101241.53;5204464;34;34158;-83
2023/09/05 07:03:26;;;;;;;2.85;2.55;;;;;;;20.78;62.12;101235.97;5195843;34;33481;-88
2023/09/05 07:06:29;;;;;;;2.75;2.35;;;;;;;20.95;61.09;101234.31;5186948;34;33557;-88
2023/09/05 07:09:33;;;;;;;4.93;2.62;;;;;;;20.95;61.48;101237.06;5186111;34;34930;-88
2023/09/05 07:12:36;;;;;;;2.80;2.47;;;;;;;21.12;60.87;101234.56;5165853;34;33747;-84
2023/09/05 07:15:39;;;;;;;2.97;2.40;;;;;;;21.35;61.60;101239.34;5193782;34;34691;-85
2023/09/05 07:18:42;;;;;;;3.78;2.72;;;;;;;21.47;60.11;101243.06;5184423;34;33814;-84
2023/09/05 07:21:45;;;;;;;2.90;2.42;;;;;;;21.23;58.89;101252.12;5186201;34;33909;-82
2023/09/05 07:24:48;;;;;;;3.15;2.40;;;;;;;21.45;59.59;101247.09;5193552;34;35103;-82
2023/09/05 07:27:51;;;;;;;3.12;2.28;;;;;;;21.69;58.58;101246.16;5212875;34;34360;-82
2023/09/05 07:30:54;;;;;;;6.10;2.95;;;;;;;21.72;58.52;101250.34;5190664;34;33911;-82
2023/09/05 07:33:58;;;;;;;3.65;2.75;;;;;;;21.88;57.27;101246.97;5202997;34;33784;-82
2023/09/05 07:37:01;;;;;;;5.68;2.62;;;;;;;22.26;57.30;101255.94;5197846;34;34704;-82
2023/09/05 07:40:05;;;;;;;3.25;2.60;;;;;;;22.34;55.29;101256.44;5186573;34;33780;-82
2023/09/05 07:43:08;;;;;;;2.83;2.50;;;;;;;22.22;54.88;101249.25;5207478;34;33432;-83
2023/09/05 07:46:11;;;;;;;5.55;2.33;;;;;;;22.26;55.04;101256.81;5206398;34;33429;-83
2023/09/05 07:49:17;;;;;;;4.07;2.62;;;;;;;22.42;55.09;101250.63;5203413;34;33818;-82
2023/09/05 07:52:20;;;;;;;6.72;3.00;;;;;;;22.57;54.70;101257.56;5212873;34;34812;-83
2023/09/05 07:55:23;;;;;;;4.57;2.95;;;;;;;22.82;55.49;101252.72;5182640;34;34657;-83
2023/09/05 07:58:27;;;;;;;4.10;2.80;;;;;;;22.63;54.20;101259.38;5190822;34;34702;-83
2023/09/05 08:01:30;;;;;;;9.32;3.22;;;;;;;22.76;53.28;101256.41;5190695;34;35157;-83
2023/09/05 08:04:33;;;;;;;7.18;2.75;;;;;;;22.75;54.10;101257.47;5196340;34;33354;-83
2023/09/05 08:07:37;;;;;;;4.40;2.53;;;;;;;23.01;52.13;101250.72;5209683;34;33944;-83
2023/09/05 08:10:41;;;;;;;7.50;2.90;;;;;;;23.09;51.20;101257.78;5212325;34;34092;-83
2023/09/05 08:13:44;;;;;;;4.70;2.65;;;;;;;23.13;51.01;101244.38;5217351;34;34036;-83
2023/09/05 08:16:48;;;;;;;4.72;2.67;;;;;;;23.38;50.72;101247.72;5199357;34;33503;-83
2023/09/05 08:19:51;;;;;;;3.75;2.90;;;;;;;23.21;49.98;101252.25;5189621;34;33856;-83
2023/09/05 08:22:54;;;;;;;11.55;3.05;;;;;;;23.35;49.87;101239.94;5195064;34;33892;-83
2023/09/05 08:25:58;;;;;;;5.70;2.90;;;;;;;23.34;49.51;101245.66;5168259;34;34510;-83
2023/09/05 08:29:03;;;;;;;4.35;2.47;;;;;;;23.36;51.63;101235.28;5177453;34;33446;-83
2023/09/05 08:32:06;;;;;;;9.45;2.80;;;;;;;23.48;50.70;101238.84;5188574;34;34091;-83
2023/09/05 08:35:09;;;;;;;4.45;2.90;;;;;;;23.58;50.49;101243.72;5171365;34;34644;-83
2023/09/05 08:38:13;;;;;;;5.00;2.60;;;;;;;23.90;49.29;101241.38;5194926;34;34006;-83
2023/09/05 08:41:17;;;;;;;5.05;2.22;;;;;;;23.82;48.30;101239.00;5187443;34;33605;-83
2023/09/05 08:44:20;;;;;;;4.32;2.70;;;;;;;23.89;48.81;101232.28;5181001;34;33919;-84
2023/09/05 08:47:23;;;;;;;7.03;2.50;;;;;;;23.79;47.89;101234.00;5174880;34;34432;-84
2023/09/05 08:50:26;;;;;;;4.25;2.40;;;;;;;23.91;49.64;101232.03;5175630;34;33584;-83
2023/09/05 08:53:39;;;;;;;3.12;2.33;;;;;;;24.13;50.55;101230.25;5182357;34;33981;-83
2023/09/05 08:56:42;;;;;;;5.37;2.47;;;;;;;24.09;47.56;101231.00;5191677;34;33212;-83
2023/09/05 08:59:45;;;;;;;7.22;2.55;;;;;;;24.08;47.96;101224.66;5174144;34;34418;-82
2023/09/05 09:02:48;;;;;;;3.00;2.35;;;;;;;24.23;48.07;101228.78;5200535;34;33908;-83
2023/09/05 09:05:51;;;;;;;5.05;2.60;;;;;;;24.03;46.84;101223.72;5187627;34;33702;-82
2023/09/05 09:08:54;;;;;;;6.35;2.40;;;;;;;24.32;48.78;101211.59;5191265;34;33640;-86
2023/09/05 09:12:00;;;;;;;5.07;2.60;;;;;;;24.41;46.88;101204.59;5206179;34;35203;-87
2023/09/05 09:15:10;;;;;;;3.95;2.12;;;;;;;24.36;46.04;101200.91;5205574;34;35108;-87
2023/09/05 09:18:14;;;;;;;5.47;2.40;;;;;;;24.42;45.20;101199.91;5190949;34;34395;-82
2023/09/05 09:21:18;;;;;;;4.45;2.40;;;;;;;24.80;49.19;101195.59;5191982;34;33604;-82
2023/09/05 09:24:31;;;;;;;7.00;2.58;;;;;;;24.91;46.37;101191.06;5172504;34;33930;-82
2023/09/05 09:27:34;;;;;;;3.55;2.35;;;;;;;24.94;45.25;101191.38;5205132;34;33606;-82
2023/09/05 09:30:37;;;;;;;5.28;2.30;;;;;;;25.01;44.80;101177.44;5181313;34;34779;-82
2023/09/05 09:33:42;;;;;;;3.05;2.30;;;;;;;24.57;46.51;101185.59;5182900;34;34761;-82
2023/09/05 09:36:51;;;;;;;3.03;2.70;;;;;;;24.40;46.08;101191.09;5194861;34;35488;-83
2023/09/05 09:40:01;;;;;;;3.72;2.40;;;;;;;24.52;48.00;101180.84;5188083;34;34429;-83
2023/09/05 09:43:04;;;;;;;2.95;2.60;;;;;;;24.96;46.53;101169.94;5192405;34;34543;-82
2023/09/05 09:46:11;;;;;;;2.60;2.40;;;;;;;24.91;45.66;101175.38;5192619;34;33485;-83
2023/09/05 09:49:15;;;;;;;2.67;2.47;;;;;;;25.26;45.90;101166.78;5202124;34;34003;-83
2023/09/05 09:52:22;;;;;;;2.90;2.20;;;;;;;25.17;45.53;101164.72;5194619;34;33827;-83
2023/09/05 09:55:30;;;;;;;5.32;2.50;;;;;;;25.07;43.42;101165.41;5217973;34;33924;-83
2023/09/05 09:58:35;;;;;;;5.95;2.40;;;;;;;25.30;45.10;101172.59;5205490;34;33889;-82
2023/09/05 10:01:39;;;;;;;2.72;2.53;;;;;;;25.91;44.81;101167.81;5203741;34;35125;-83
2023/09/05 10:04:46;;;;;;;3.35;2.50;;;;;;;25.87;45.36;101163.91;5175116;34;33944;-83
2023/09/05 10:07:51;;;;;;;6.05;2.65;;;;;;;26.21;42.60;101167.28;5173907;34;33736;-83
2023/09/05 10:10:55;;;;;;;3.00;2.70;;;;;;;26.55;42.62;101147.66;5191588;34;34356;-83
2023/09/05 10:13:58;;;;;;;3.15;2.85;;;;;;;26.41;41.94;101150.03;5191264;34;35149;-83
2023/09/05 10:17:03;;;;;;;3.15;2.45;;;;;;;26.32;43.01;101151.59;5191056;34;33863;-83
2023/09/05 10:20:07;;;;;;;3.10;2.50;;;;;;;26.53;41.94;101144.34;5191628;34;33424;-83
2023/09/05 10:23:32;;;;;;;4.03;2.65;;;;;;;26.78;40.99;101143.66;5188655;34;34380;-82
2023/09/05 10:26:35;;;;;;;3.65;2.10;;;;;;;26.44;40.72;101137.59;5192934;34;33848;-83
2023/09/05 10:29:49;;;;;;;4.03;2.30;;;;;;;26.97;40.95;101134.91;5199592;34;36664;-88
2023/09/05 10:32:53;;;;;;;1.55;1.45;;;;;;;27.12;40.34;101146.88;5192013;34;33946;-83
2023/09/05 10:35:56;;;;;;;2.25;2.05;;;;;;;26.97;38.74;101140.44;5205162;34;33506;-83
2023/09/05 10:39:27;;;;;;;5.72;2.00;;;;;;;27.12;39.65;101135.84;5208525;34;35468;-83
2023/09/05 10:42:32;;;;;;;2.10;1.90;;;;;;;26.60;40.28;101135.84;5175502;34;32054;-83
2023/09/05 10:45:37;;;;;;;2.17;1.85;;;;;;;27.22;40.06;101121.25;5193098;34;33730;-83
2023/09/05 10:48:40;;;;;;;2.12;1.90;;;;;;;27.28;38.21;101128.44;5214238;34;33430;-83
2023/09/05 10:52:16;;;;;;;5.15;2.10;;;;;;;27.47;39.67;101127.97;5189393;34;34527;-83
2023/09/05 10:55:25;;;;;;;3.03;1.67;;;;;;;28.15;37.59;101122.25;5203820;34;33605;-84
2023/09/05 10:58:56;;;;;;;3.45;1.90;;;;;;;28.52;37.96;101118.34;5204623;34;33548;-83
2023/09/05 11:02:08;;;;;;;3.40;1.87;;;;;;;28.13;38.02;101114.22;5215244;34;35635;-83
2023/09/05 11:05:18;;;;;;;2.35;2.12;;;;;;;28.34;38.17;101116.97;5207866;34;33235;-83
2023/09/05 11:08:22;;;;;;;1.75;1.65;;;;;;;28.84;35.65;101121.63;5189760;34;33925;-83
2023/09/05 11:11:40;;;;;;;2.20;1.73;;;;;;;28.45;38.07;101104.81;5218985;34;34978;-87
2023/09/05 11:14:45;;;;;;;3.15;1.67;;;;;;;29.35;36.31;101099.22;5194981;34;34581;-83
2023/09/05 11:18:09;;;;;;;3.62;2.20;;;;;;;29.63;34.96;101099.62;5202826;34;33991;-83
2023/09/05 11:21:22;;;;;;;2.00;1.90;;;;;;;30.04;33.53;101102.94;5194520;34;34666;-83
2023/09/05 11:24:32;;;;;;;3.58;2.28;;;;;;;30.30;33.30;101097.16;5220438;34;33822;-82
2023/09/05 11:27:36;;;;;;;2.78;1.80;;;;;;;30.55;32.65;101095.25;5204413;34;33473;-83
2023/09/05 11:30:42;;;;;;;2.00;1.90;;;;;;;29.90;33.11;101101.94;5208703;34;33776;-83
2023/09/05 11:33:45;;;;;;;1.87;1.77;;;;;;;28.99;34.94;101104.09;5201567;34;33852;-83
2023/09/05 11:36:48;;;;;;;2.10;1.90;;;;;;;29.28;34.12;101093.19;5200911;34;35118;-83
2023/09/05 11:39:51;;;;;;;4.28;1.67;;;;;;;29.08;34.61;101091.34;5204267;34;34186;-83
2023/09/05 11:43:08;;;;;;;3.05;1.65;;;;;;;28.21;35.83;101085.97;5221623;34;33830;-83
2023/09/05 11:46:13;;;;;;;2.28;1.80;;;;;;;29.42;35.89;101085.03;5219916;34;35416;-83
2023/09/05 11:49:16;;;;;;;1.87;1.67;;;;;;;32.08;30.72;101090.38;5205479;34;34127;-83
2023/09/05 11:52:20;;;;;;;2.47;1.27;;;;;;;33.52;27.71;101088.37;5196346;34;33987;-83
2023/09/05 11:55:25;;;;;;;1.77;1.67;;;;;;;34.96;26.42;101083.47;5198731;34;33503;-83
2023/09/05 11:58:28;;;;;;;2.47;1.40;;;;;;;30.33;31.15;101081.84;5200229;34;35591;-82
2023/09/05 12:01:32;;;;;;;1.48;1.33;;;;;;;32.42;29.95;101076.12;5203982;34;35030;-81
2023/09/05 12:04:36;;;;;;;1.35;1.25;;;;;;;35.05;26.40;101069.53;5194095;34;34420;-82
2023/09/05 12:07:39;;;;;;;3.05;1.83;;;;;;;37.39;23.37;101065.25;5208384;34;33880;-82
2023/09/05 12:10:51;;;;;;;2.58;1.40;;;;;;;38.74;22.03;101068.47;5180339;34;34616;-82
2023/09/05 12:13:57;;;;;;;1.40;1.30;;;;;;;39.95;20.73;101067.72;5212639;34;33804;-82
2023/09/05 12:17:01;;;;;;;2.35;1.40;;;;;;;39.38;20.30;101053.63;5220467;34;33537;-82
2023/09/05 12:20:09;;;;;;;1.80;1.15;;;;;;;39.15;20.85;101060.94;5197831;34;34665;-81
2023/09/05 12:23:23;;;;;;;2.03;1.27;;;;;;;38.23;21.53;101059.50;5183085;34;33475;-86
2023/09/05 12:26:47;;;;;;;2.35;1.15;;;;;;;37.09;22.61;101058.88;5203014;34;34310;-82
2023/09/05 12:29:52;;;;;;;1.30;1.10;;;;;;;35.22;24.25;101061.16;5188633;34;33744;-82
2023/09/05 12:33:04;;;;;;;2.60;1.12;;;;;;;37.26;22.55;101057.91;5196695;34;33904;-82
2023/09/05 12:36:07;;;;;;;1.35;1.25;;;;;;;38.41;21.07;101058.16;5217771;34;33952;-82
2023/09/05 12:39:10;;;;;;;1.48;1.23;;;;;;;39.08;20.97;101055.06;5203552;34;34815;-81
2023/09/05 12:42:13;;;;;;;1.80;1.30;;;;;;;39.74;19.64;101051.00;5205288;34;33820;-83
2023/09/05 12:45:17;;;;;;;1.48;1.37;;;;;;;40.49;19.05;101044.56;5208353;34;35418;-82
2023/09/05 12:48:20;;;;;;;1.05;1.05;;;;;;;37.95;21.27;101048.09;5217666;34;34725;-82
2023/09/05 12:51:23;;;;;;;1.48;1.20;;;;;;;34.43;25.02;101042.44;5190540;34;33896;-82
2023/09/05 12:54:27;;;;;;;1.27;1.17;;;;;;;34.42;25.08;101049.19;5201366;34;33452;-82
2023/09/05 12:57:29;;;;;;;1.50;1.40;;;;;;;37.72;21.92;101039.22;5189145;34;33817;-82
2023/09/05 13:00:34;;;;;;;1.10;1.00;;;;;;;37.27;21.94;101039.91;5199156;34;34943;-82
2023/09/05 13:03:37;;;;;;;2.22;1.15;;;;;;;37.50;22.11;101032.81;5219595;34;33901;-82
2023/09/05 13:06:42;;;;;;;2.22;1.95;;;;;;;39.58;19.88;101034.88;5194437;34;33993;-82
2023/09/05 13:09:45;;;;;;;2.80;1.25;;;;;;;42.64;17.89;101032.00;5222741;34;33742;-82
2023/09/05 13:12:49;;;;;;;1.67;1.20;;;;;;;40.89;18.27;101037.88;5199805;34;34959;-82
2023/09/05 13:15:52;;;;;;;1.50;0.98;;;;;;;40.96;17.89;101026.75;5207105;34;35022;-82
2023/09/05 13:18:56;;;;;;;1.20;1.00;;;;;;;40.11;18.62;101023.44;5189917;34;34021;-82
2023/09/05 13:21:58;;;;;;;1.45;1.35;;;;;;;40.42;18.65;101022.63;5190107;34;32798;-82
2023/09/05 13:25:02;;;;;;;2.53;1.10;;;;;;;41.63;17.79;101012.44;5196706;34;34115;-82
2023/09/05 13:28:05;;;;;;;1.10;1.05;;;;;;;42.81;16.73;101014.50;5192733;34;33633;-81
2023/09/05 13:31:10;;;;;;;1.42;1.10;;;;;;;41.30;17.92;101015.78;5219822;34;35556;-82
2023/09/05 13:34:13;;;;;;;1.25;1.15;;;;;;;41.72;17.62;101010.19;5197416;34;34604;-82
2023/09/05 13:37:16;;;;;;;3.70;1.10;;;;;;;41.58;18.08;101015.56;5192084;34;33898;-82
2023/09/05 13:40:19;;;;;;;2.78;1.25;;;;;;;42.39;17.10;101011.78;5167721;34;33715;-82
2023/09/05 13:43:22;;;;;;;25.45;4.05;;;;;;;40.54;18.41;101019.72;5168504;34;34036;-82
2023/09/05 13:46:25;;;;;;;15.45;2.45;;;;;;;39.10;19.83;101021.75;5201635;34;34107;-82
2023/09/05 13:49:28;;;;;;;1.70;1.42;;;;;;;38.68;20.86;101022.03;5189045;34;33892;-82
2023/09/05 13:52:31;;;;;;;2.97;1.60;;;;;;;36.52;23.25;101018.09;5197884;34;32615;-82
2023/09/05 13:55:34;;;;;;;5.00;1.45;;;;;;;37.63;22.23;101012.00;5176541;34;34106;-82
2023/09/05 13:58:37;;;;;;;1.85;1.40;;;;;;;34.75;25.44;101016.09;5202446;34;34839;-82
2023/09/05 14:01:40;;;;;;;3.53;1.67;;;;;;;33.16;27.58;101016.59;5176872;34;34558;-82
2023/09/05 14:04:43;;;;;;;3.95;1.95;;;;;;;31.51;29.71;101022.84;5181702;34;33604;-82
2023/09/05 14:07:46;;;;;;;5.12;1.90;;;;;;;29.88;32.27;101022.84;5182102;34;34847;-82
2023/09/05 14:10:50;;;;;;;4.25;2.00;;;;;;;29.26;33.80;101025.25;5175575;34;33513;-86
2023/09/05 14:13:53;;;;;;;2.33;1.77;;;;;;;28.34;35.07;101025.59;5176363;34;34652;-86
2023/09/05 14:16:56;;;;;;;1.83;1.73;;;;;;;27.91;35.83;101019.59;5171975;34;33283;-82
2023/09/05 14:19:58;;;;;;;3.00;2.00;;;;;;;27.78;36.24;101021.78;5180093;34;33666;-82
2023/09/05 14:23:02;;;;;;;3.28;2.00;;;;;;;27.64;37.01;101017.88;5194917;34;33383;-82
2023/09/05 14:26:04;;;;;;;3.08;1.77;;;;;;;27.93;36.64;101020.13;5179906;34;34738;-82
2023/09/05 14:29:08;;;;;;;2.12;1.60;;;;;;;27.83;36.49;101020.13;5169045;34;34798;-81
2023/09/05 14:32:11;;;;;;;3.22;1.70;;;;;;;27.69;36.73;101019.81;5191635;34;34885;-82
2023/09/05 14:35:14;;;;;;;3.85;2.17;;;;;;;27.46;37.06;101019.25;5191266;34;33810;-82
2023/09/05 14:38:17;;;;;;;1.98;1.80;;;;;;;27.50;36.94;101020.37;5190692;34;34648;-82
2023/09/05 14:41:21;;;;;;;2.45;2.08;;;;;;;27.54;36.77;101021.47;5192004;34;33754;-82
2023/09/05 14:44:24;;;;;;;3.22;2.12;;;;;;;27.57;37.69;101014.56;5188695;34;33914;-82
2023/09/05 14:47:27;;;;;;;2.50;2.30;;;;;;;27.52;37.62;101014.56;5173320;34;34135;-82
2023/09/05 14:50:30;;;;;;;2.35;2.15;;;;;;;27.42;38.07;101012.63;5214799;34;33149;-82
2023/09/05 14:53:33;;;;;;;2.70;2.20;;;;;;;27.30;38.42;101003.75;5197914;34;33844;-82
2023/09/05 14:56:36;;;;;;;2.30;1.92;;;;;;;26.92;38.69;101014.97;5196630;34;34422;-82
2023/09/05 14:59:39;;;;;;;3.53;1.92;;;;;;;26.65;39.39;101006.06;5168893;34;34469;-82
2023/09/05 15:02:42;;;;;;;3.08;2.17;;;;;;;26.59;39.44;101001.56;5173516;34;34450;-82
2023/09/05 15:05:45;;;;;;;3.65;2.03;;;;;;;26.46;40.63;101000.94;5195336;34;33405;-82
2023/09/05 15:08:48;;;;;;;2.05;1.80;;;;;;;26.37;41.11;101005.31;5210701;34;34548;-83
2023/09/05 15:11:51;;;;;;;2.62;2.20;;;;;;;26.24;40.38;101006.63;5192678;34;33932;-84
2023/09/05 15:14:54;;;;;;;2.12;1.83;;;;;;;25.98;41.10;101010.34;5197123;34;33791;-82
2023/09/05 15:17:57;;;;;;;3.10;2.22;;;;;;;25.97;40.61;101003.13;5183853;34;279664;-84
2023/09/05 15:21:00;;;;;;;2.28;2.10;;;;;;;25.96;41.10;101004.25;5191321;34;34028;-84
2023/09/05 15:24:06;;;;;;;3.35;2.10;;;;;;;25.92;40.95;101009.47;5182996;34;34777;-82
2023/09/05 15:27:08;;;;;;;2.15;1.95;;;;;;;25.82;41.15;101009.38;5181473;34;34173;-83
2023/09/05 15:30:15;;;;;;;4.70;2.28;;;;;;;25.85;41.56;101008.84;5202765;34;34646;-82
2023/09/05 15:33:18;;;;;;;5.00;2.30;;;;;;;26.11;41.82;101009.03;5202837;34;34923;-82
2023/09/05 15:36:21;;;;;;;2.75;2.05;;;;;;;26.08;41.78;101004.88;5196184;34;33559;-82
2023/09/05 15:39:24;;;;;;;4.10;2.20;;;;;;;26.03;41.35;101004.81;5190201;34;34750;-82
2023/09/05 15:42:27;;;;;;;2.47;2.00;;;;;;;25.99;42.45;101007.28;5179105;34;33760;-82
2023/09/05 15:45:31;;;;;;;4.22;2.22;;;;;;;25.82;42.78;101005.75;5190475;34;34072;-82
2023/09/05 15:48:34;;;;;;;3.20;2.30;;;;;;;25.94;42.19;101001.72;5184817;34;34452;-82
2023/09/05 15:51:37;;;;;;;2.40;1.92;;;;;;;25.84;42.56;101003.59;5177970;34;33992;-82
2023/09/05 15:54:40;;;;;;;2.20;2.00;;;;;;;25.89;42.58;101000.91;5189835;34;34752;-82
2023/09/05 15:57:44;;;;;;;2.08;1.90;;;;;;;26.07;42.62;100999.63;5179086;34;34059;-82
2023/09/05 16:00:50;;;;;;;2.22;2.10;;;;;;;25.99;42.78;101007.28;5178874;34;33474;-82
2023/09/05 16:03:54;;;;;;;2.35;1.98;;;;;;;25.75;41.93;101006.00;5190521;34;34670;-82
2023/09/05 16:06:57;;;;;;;2.85;1.95;;;;;;;25.59;42.13;101005.00;5179027;34;34762;-82
2023/09/05 16:10:00;;;;;;;2.55;1.92;;;;;;;25.60;42.39;101012.22;5202726;34;33642;-82
2023/09/05 16:13:07;;;;;;;3.08;2.25;;;;;;;25.46;42.52;101011.81;5202693;34;33966;-82
2023/09/05 16:16:16;;;;;;;2.15;1.95;;;;;;;25.38;42.75;101016.97;5179213;34;33452;-82
2023/09/05 16:19:20;;;;;;;2.20;2.00;;;;;;;25.18;42.67;101012.91;5201384;34;34584;-82
2023/09/05 16:22:24;;;;;;;3.35;2.12;;;;;;;25.18;42.89;101007.38;5202807;34;34606;-86
2023/09/05 16:25:27;;;;;;;3.65;1.85;;;;;;;25.07;43.35;101008.34;5202427;34;33860;-87
2023/09/05 16:28:30;;;;;;;3.22;1.90;;;;;;;24.95;44.67;101016.78;5202295;34;35681;-87
2023/09/05 16:31:34;;;;;;;3.90;2.30;;;;;;;24.83;45.81;101011.41;5189782;34;34991;-83
2023/09/05 16:34:37;;;;;;;4.60;2.17;;;;;;;24.58;46.80;101009.16;5189778;34;33986;-83
2023/09/05 16:37:40;;;;;;;6.12;2.50;;;;;;;24.38;47.62;101006.09;5189599;34;34644;-82
2023/09/05 16:40:43;;;;;;;2.58;2.20;;;;;;;24.25;48.37;101009.19;5202279;34;34586;-82
2023/09/05 16:43:46;;;;;;;3.03;2.28;;;;;;;24.20;48.95;101009.97;5178376;34;33902;-82
2023/09/05 16:46:49;;;;;;;5.72;2.58;;;;;;;24.11;49.32;101000.50;5190694;34;33314;-82
2023/09/05 16:49:53;;;;;;;4.12;2.60;;;;;;;24.02;50.00;101004.75;5191031;34;34834;-82
2023/09/05 16:52:56;;;;;;;5.95;2.35;;;;;;;23.88;50.75;101010.59;5193015;34;34456;-83
2023/09/05 16:56:01;;;;;;;5.93;2.50;;;;;;;23.79;51.64;101014.03;5189484;34;33666;-82
2023/09/05 16:59:04;;;;;;;3.33;2.53;;;;;;;23.67;52.69;101014.91;5189624;34;33867;-83
2023/09/05 17:02:07;;;;;;;5.15;2.70;;;;;;;23.57;52.81;101017.47;5189516;34;34763;-83
2023/09/05 17:05:11;;;;;;;3.03;2.58;;;;;;;23.54;53.37;101024.28;5178221;34;33789;-83
2023/09/05 17:08:13;;;;;;;3.67;2.62;;;;;;;23.48;53.72;101029.94;5178221;34;33487;-83
2023/09/05 17:11:16;;;;;;;3.70;2.70;;;;;;;23.30;54.52;101031.84;5178340;34;34012;-83
2023/09/05 17:14:22;;;;;;;3.65;2.50;;;;;;;23.19;55.11;101034.63;5180838;34;34804;-83
2023/09/05 17:17:25;;;;;;;3.15;2.35;;;;;;;23.15;55.24;101042.53;5181985;34;33900;-83
2023/09/05 17:20:28;;;;;;;6.07;2.47;;;;;;;23.06;55.72;101036.59;5206141;34;33801;-83
2023/09/05 17:23:31;;;;;;;3.85;2.28;;;;;;;22.97;56.57;101034.50;5190903;34;34224;-83
2023/09/05 17:26:33;;;;;;;3.42;2.58;;;;;;;22.85;57.70;101046.31;5190440;34;34085;-83
2023/09/05 17:29:36;;;;;;;4.10;2.80;;;;;;;22.75;57.92;101039.78;5189820;34;33927;-83
2023/09/05 17:32:39;;;;;;;2.72;2.45;;;;;;;22.64;59.19;101036.81;5178199;34;34740;-83
2023/09/05 17:35:43;;;;;;;4.43;3.00;;;;;;;22.50;60.22;101038.16;5189083;34;33604;-83
2023/09/05 17:38:49;;;;;;;3.22;2.75;;;;;;;22.34;61.39;101042.44;5201603;34;34743;-83
2023/09/05 17:41:54;;;;;;;4.93;2.80;;;;;;;22.23;62.39;101043.31;5189206;34;34658;-83
2023/09/05 17:44:56;;;;;;;4.80;2.95;;;;;;;22.16;63.60;101045.28;5177827;34;34551;-84
